• Join FlightAware (Why Join?)
  • Login
  • US Flag 
01:16PM EST


 

Airport Tracker/Info


-or-


 

Live Flight TrackerFlight Track Log ✈ SAS443 ✈ 09-May-2013 ✈ ESGG / GOT - EKCH / CPH

Flight Track Log - Related Links

Times and Time Zones

All times are in EDT time to prevent confusion due to time zone crossing. See the SAS443 flight status page for this flight to view local times or setup timezone preferences in your user account.

Time Position Orientation Groundspeed Altitude Reporting Facility
EDT Latitude Longitude Course Direction KTS MPH feet Rate Location/Type
04:14AM 57.3844 12.3335 174° South  Level Estimated
04:15AM 57.2915 12.3512 174° South  Level Estimated
04:16AM 57.1987 12.3689 174° South  Level Estimated
04:17AM 57.1059 12.3864 174° South  Level Estimated
04:18AM 57.0131 12.4038 174° South  Level Estimated
04:19AM 56.9202 12.4212 174° South  Level Estimated
04:20AM 56.8274 12.4385 174° South  Level Estimated
04:21AM 56.7345 12.4557 174° South  Level Estimated
04:22AM 56.6417 12.4728 174° South  Level Estimated
04:23AM 56.5488 12.4898 174° South  Level Estimated
04:24AM 56.4560 12.5068 174° South  Level Estimated
04:25AM 56.3631 12.5236 174° South  Level Estimated
04:26AM 56.2703 12.5404 174° South  Level Estimated
04:27AM 56.1774 12.5571 174° South  Level Estimated
04:28AM 56.0846 12.5737 174° South  Level Estimated
04:29AM 55.9569 12.5964 174° South  Level Estimated
04:30AM 55.8292 12.6190 174° South  Level Estimated
04:31AM 55.7015 12.6414 174° South  Level Estimated
04:32AM 55.6179 12.6560 174° South  Level Estimated
04:33AM 55.6179 12.6560 159° South  Level Estimated
04:34AM 55.6179 12.6560 159° South  Level Estimated
04:35AM 55.6179 12.6560 159° South  Level Estimated
04:36AM 55.6179 12.6560 159° South  Level Estimated
04:37AM 55.6179 12.6560 159° South  Level Estimated
04:38AM 55.6179 12.6560 159° South  Level Estimated
04:39AM 55.6179 12.6560 159° South  Level Estimated
04:40AM 55.6179 12.6560 159° South  Level Estimated
04:41AM 55.6179 12.6560 159° South  Level Estimated
04:42AM 55.6179 12.6560 159° South  Level Estimated
04:43AM 55.6179 12.6560 159° South  Level Estimated